Time;durP1;ratioP1;P1;durP2;ratioP2;P2;SDS_P1;SDS_P2;PMS_P1;PMS_P2;Temp;Humidity;BMP_temperature;BMP_pressure;BME280_temperature;BME280_humidity;BME280_pressure;Samples;Min_cycle;Max_cycle;Signal;HPM_P1;HPM_P2
2023/12/23 00:01:00;;;;;;;3.88;0.77;;;;;;;6.80;100.00;96674.00;5014749;28;20042;-64
2023/12/23 00:03:26;;;;;;;2.38;1.00;;;;;;;6.76;100.00;96692.50;5002942;28;20070;-63
2023/12/23 00:05:53;;;;;;;2.72;1.00;;;;;;;6.81;100.00;96681.00;5003281;28;20034;-64
2023/12/23 00:08:19;;;;;;;3.55;1.10;;;;;;;6.85;100.00;96674.06;5005429;28;21063;-64
2023/12/23 00:10:46;;;;;;;7.68;1.20;;;;;;;6.84;100.00;96687.75;4999198;28;20099;-64
2023/12/23 00:13:13;;;;;;;6.03;1.50;;;;;;;6.89;100.00;96672.50;5003176;28;20115;-65
2023/12/23 00:15:39;;;;;;;1.85;0.82;;;;;;;6.97;100.00;96668.59;5001193;28;20046;-64
2023/12/23 00:18:06;;;;;;;5.13;1.00;;;;;;;6.98;100.00;96720.56;4997157;28;20033;-64
2023/12/23 00:20:32;;;;;;;2.42;0.70;;;;;;;6.99;100.00;96717.63;5003442;28;20740;-64
2023/12/23 00:22:59;;;;;;;6.70;1.17;;;;;;;6.93;100.00;96723.16;5002839;28;20073;-64
2023/12/23 00:25:26;;;;;;;3.53;1.10;;;;;;;6.86;100.00;96744.84;5004075;28;20050;-65
2023/12/23 00:27:53;;;;;;;4.03;1.08;;;;;;;6.65;100.00;96728.34;5003329;28;20041;-63
2023/12/23 00:30:19;;;;;;;3.53;0.95;;;;;;;6.48;100.00;96737.22;5004323;28;20116;-63
2023/12/23 00:32:46;;;;;;;4.80;1.00;;;;;;;6.33;100.00;96737.75;4996848;28;20046;-64
2023/12/23 00:35:13;;;;;;;5.13;0.93;;;;;;;6.27;100.00;96759.41;4998239;28;20046;-65
2023/12/23 00:37:41;;;;;;;4.38;1.25;;;;;;;6.17;100.00;96752.78;4989592;28;20062;-64
2023/12/23 00:40:07;;;;;;;7.05;1.40;;;;;;;6.24;100.00;96784.88;5002270;28;20046;-64
2023/12/23 00:42:35;;;;;;;4.00;1.17;;;;;;;6.27;100.00;96746.78;5004549;28;20636;-64
2023/12/23 00:45:02;;;;;;;4.82;1.23;;;;;;;6.26;100.00;96760.47;5001155;28;20049;-64
2023/12/23 00:47:28;;;;;;;2.83;0.95;;;;;;;6.32;100.00;96789.06;5005186;28;20045;-64
2023/12/23 00:50:02;;;;;;;4.47;1.15;;;;;;;6.37;100.00;96751.50;4978989;28;20056;-63
2023/12/23 00:52:31;;;;;;;4.78;1.08;;;;;;;6.31;100.00;96771.31;4993098;28;20054;-64
2023/12/23 00:54:59;;;;;;;3.90;1.20;;;;;;;6.27;100.00;96775.53;4983011;28;20064;-65
2023/12/23 00:57:27;;;;;;;4.65;1.15;;;;;;;6.41;100.00;96784.94;4999483;28;20121;-64
2023/12/23 00:59:55;;;;;;;4.97;1.33;;;;;;;6.43;100.00;96777.47;4998884;28;20054;-63
2023/12/23 01:02:22;;;;;;;3.65;1.20;;;;;;;6.42;100.00;96780.38;4992086;28;20070;-64
2023/12/23 01:04:49;;;;;;;5.97;0.90;;;;;;;6.42;100.00;96791.16;4998786;28;20034;-64
2023/12/23 01:07:16;;;;;;;7.20;1.90;;;;;;;6.45;100.00;96791.47;4998188;28;20038;-64
2023/12/23 01:09:42;;;;;;;3.55;1.02;;;;;;;6.52;100.00;96780.56;5001760;28;20448;-63
2023/12/23 01:12:09;;;;;;;4.30;0.95;;;;;;;6.47;100.00;96807.38;4996845;28;20045;-64
2023/12/23 01:14:36;;;;;;;3.20;0.90;;;;;;;6.47;100.00;96815.44;5002307;28;20508;-64
2023/12/23 01:17:03;;;;;;;4.18;1.35;;;;;;;6.37;100.00;96837.56;5005332;28;20034;-62
2023/12/23 01:19:30;;;;;;;5.18;1.10;;;;;;;6.24;100.00;96833.28;4995241;28;20505;-63
2023/12/23 01:21:57;;;;;;;5.95;1.10;;;;;;;6.21;100.00;96823.00;5003504;28;20070;-64
2023/12/23 01:24:24;;;;;;;4.18;1.13;;;;;;;6.14;100.00;96833.06;5002235;28;20048;-65
2023/12/23 01:26:50;;;;;;;5.55;1.30;;;;;;;6.02;100.00;96822.28;5000561;28;20433;-65
2023/12/23 01:29:18;;;;;;;3.05;1.00;;;;;;;5.95;100.00;96835.88;5001542;28;20068;-64
2023/12/23 01:31:45;;;;;;;5.07;1.23;;;;;;;5.96;100.00;96834.81;5003116;28;20103;-62
2023/12/23 01:34:11;;;;;;;8.15;1.45;;;;;;;5.99;100.00;96839.72;4995121;28;20576;-61
2023/12/23 01:36:38;;;;;;;5.68;1.20;;;;;;;5.97;100.00;96848.00;5015787;28;20532;-62
2023/12/23 01:39:04;;;;;;;7.28;1.85;;;;;;;6.08;100.00;96851.75;4999753;28;20044;-61
2023/12/23 01:41:31;;;;;;;3.40;1.67;;;;;;;6.16;100.00;96842.50;5008612;28;20506;-61
2023/12/23 01:43:58;;;;;;;8.13;1.80;;;;;;;6.22;100.00;96846.13;5001017;28;20046;-61
2023/12/23 01:46:25;;;;;;;4.88;1.40;;;;;;;6.26;100.00;96836.53;4998324;28;20100;-61
2023/12/23 01:48:52;;;;;;;6.47;1.65;;;;;;;6.32;100.00;96893.94;5002978;28;20726;-61
2023/12/23 01:51:19;;;;;;;6.78;1.40;;;;;;;6.30;100.00;96878.03;4991745;28;20117;-61
2023/12/23 01:53:46;;;;;;;5.80;1.50;;;;;;;6.30;100.00;96872.66;4992244;28;20121;-61
2023/12/23 01:56:14;;;;;;;7.13;1.40;;;;;;;6.33;100.00;96880.25;5003644;28;20042;-61
2023/12/23 01:58:41;;;;;;;5.07;1.10;;;;;;;6.32;100.00;96873.25;4995412;28;20125;-62
2023/12/23 02:01:07;;;;;;;6.30;1.40;;;;;;;6.35;100.00;96861.19;4995722;28;20061;-62
2023/12/23 02:03:34;;;;;;;5.18;1.60;;;;;;;6.35;100.00;96888.88;4998234;28;20117;-61
2023/12/23 02:06:01;;;;;;;4.70;1.48;;;;;;;6.43;100.00;96894.97;4993812;28;20575;-62
2023/12/23 02:08:28;;;;;;;6.18;1.20;;;;;;;6.41;100.00;96889.81;4996645;28;20040;-62
2023/12/23 02:11:04;;;;;;;5.60;1.33;;;;;;;6.32;100.00;96884.00;4994455;28;20049;-62
2023/12/23 02:13:50;;;;;;;3.40;0.95;;;;;;;6.21;100.00;96879.44;4973595;28;20050;-61
2023/12/23 02:16:18;;;;;;;4.38;1.13;;;;;;;6.09;100.00;96866.84;4977793;28;20049;-62
2023/12/23 02:18:45;;;;;;;4.25;1.48;;;;;;;6.06;100.00;96877.25;4993108;28;20042;-62
2023/12/23 02:21:11;;;;;;;8.25;1.65;;;;;;;6.04;100.00;96892.81;4990475;28;20053;-62
2023/12/23 02:23:38;;;;;;;6.10;1.20;;;;;;;5.98;100.00;96887.25;4997064;28;20069;-61
2023/12/23 02:26:08;;;;;;;3.92;1.30;;;;;;;5.94;100.00;96886.09;4999915;28;20042;-62
2023/12/23 02:28:37;;;;;;;6.00;1.48;;;;;;;5.93;100.00;96870.22;4994537;28;20587;-61
2023/12/23 02:31:06;;;;;;;5.15;1.33;;;;;;;5.95;100.00;96874.31;4999069;28;20046;-62
2023/12/23 02:33:33;;;;;;;5.10;1.50;;;;;;;6.03;100.00;96875.84;4998379;28;20472;-62
2023/12/23 02:36:00;;;;;;;3.40;1.15;;;;;;;6.07;100.00;96860.06;4994492;28;20146;-62
2023/12/23 02:38:27;;;;;;;5.18;1.60;;;;;;;6.15;100.00;96885.78;5003092;28;20096;-62
2023/12/23 02:40:54;;;;;;;5.28;1.40;;;;;;;6.20;100.00;96872.44;5002338;28;20048;-62
2023/12/23 02:43:20;;;;;;;6.55;1.75;;;;;;;6.26;100.00;96860.72;5012963;28;20045;-61
2023/12/23 02:45:47;;;;;;;6.45;1.65;;;;;;;6.22;100.00;96878.38;4997240;28;20048;-62
2023/12/23 02:48:14;;;;;;;6.50;1.85;;;;;;;6.32;100.00;96880.50;4995973;28;20517;-62
2023/12/23 02:50:41;;;;;;;4.00;1.50;;;;;;;6.37;100.00;96888.66;5002316;28;20137;-62
2023/12/23 02:53:08;;;;;;;5.53;1.13;;;;;;;6.33;100.00;96880.25;5003727;28;20533;-61
2023/12/23 02:55:36;;;;;;;8.43;1.35;;;;;;;6.34;100.00;96879.19;5004852;28;20509;-62
2023/12/23 02:58:02;;;;;;;4.60;1.50;;;;;;;6.33;100.00;96877.56;5004442;28;20666;-62
2023/12/23 03:00:29;;;;;;;5.85;1.20;;;;;;;6.32;100.00;96870.56;5006257;28;20271;-62
2023/12/23 03:02:57;;;;;;;3.78;1.42;;;;;;;6.34;100.00;96873.00;5002702;28;20050;-62
2023/12/23 03:05:23;;;;;;;8.45;1.40;;;;;;;6.31;100.00;96871.63;4995342;28;20042;-62
2023/12/23 03:07:50;;;;;;;6.43;1.33;;;;;;;6.30;100.00;96869.16;5003601;28;20080;-61
2023/12/23 03:10:17;;;;;;;4.97;2.13;;;;;;;6.32;100.00;96862.50;5005823;28;20429;-63
2023/12/23 03:12:46;;;;;;;5.78;1.40;;;;;;;6.33;100.00;96857.91;5004644;28;20061;-63
2023/12/23 03:15:13;;;;;;;3.42;1.05;;;;;;;6.35;100.00;96855.81;5004443;28;20756;-64
2023/12/23 03:17:40;;;;;;;5.82;1.90;;;;;;;6.34;100.00;96860.38;5006659;28;20405;-64
2023/12/23 03:20:08;;;;;;;4.97;1.23;;;;;;;6.41;100.00;96871.00;5002411;28;20065;-64
2023/12/23 03:22:35;;;;;;;5.63;1.08;;;;;;;6.45;100.00;96869.47;5005927;28;20122;-63
2023/12/23 03:25:02;;;;;;;5.13;1.35;;;;;;;6.43;100.00;96860.00;5012153;28;20458;-65
2023/12/23 03:27:29;;;;;;;4.68;1.27;;;;;;;6.37;100.00;96845.63;4977462;28;20049;-62
2023/12/23 03:29:55;;;;;;;5.20;1.38;;;;;;;6.39;100.00;96865.06;4993672;28;20054;-65
2023/12/23 03:32:21;;;;;;;6.22;1.40;;;;;;;6.40;100.00;96860.47;5000144;28;20041;-65
2023/12/23 03:34:48;;;;;;;5.15;1.45;;;;;;;6.41;100.00;96854.84;5004770;28;20084;-65
2023/12/23 03:37:15;;;;;;;7.65;1.52;;;;;;;6.36;100.00;96882.47;5002978;28;20486;-63
2023/12/23 03:39:43;;;;;;;5.28;1.33;;;;;;;6.36;100.00;96854.75;5000972;28;20044;-64
2023/12/23 03:42:09;;;;;;;4.45;1.55;;;;;;;6.43;100.00;96860.00;5005516;28;20042;-62
2023/12/23 03:44:36;;;;;;;6.70;1.88;;;;;;;6.50;100.00;96860.69;5004505;28;20567;-64
2023/12/23 03:47:04;;;;;;;5.15;1.10;;;;;;;6.48;100.00;96870.84;4999720;28;20084;-64
2023/12/23 03:49:30;;;;;;;4.50;1.23;;;;;;;6.46;100.00;96872.97;4997232;28;20048;-65
2023/12/23 03:51:57;;;;;;;6.20;1.52;;;;;;;6.58;100.00;96854.94;5003251;28;20502;-63
2023/12/23 03:54:23;;;;;;;3.97;1.10;;;;;;;6.57;100.00;96850.63;5011418;28;20068;-64
2023/12/23 03:56:50;;;;;;;3.83;1.52;;;;;;;6.48;100.00;96847.47;5003510;28;20614;-64
2023/12/23 03:59:17;;;;;;;4.40;1.20;;;;;;;6.52;100.00;96838.94;5004057;28;20401;-64
2023/12/23 04:01:44;;;;;;;4.72;1.20;;;;;;;6.47;100.00;96843.16;5011150;28;20116;-64
2023/12/23 04:04:11;;;;;;;4.18;1.17;;;;;;;6.55;100.00;96827.69;5002520;28;20049;-65
2023/12/23 04:06:37;;;;;;;4.22;1.77;;;;;;;6.58;100.00;96830.72;5004440;28;20042;-64
2023/12/23 04:09:06;;;;;;;3.03;1.23;;;;;;;6.54;100.00;96813.44;5002232;28;20052;-64
2023/12/23 04:11:35;;;;;;;2.10;0.85;;;;;;;6.58;100.00;96819.16;5003999;28;20056;-64
2023/12/23 04:14:02;;;;;;;3.13;1.00;;;;;;;6.60;100.00;96811.66;5000624;28;20671;-63
2023/12/23 04:16:29;;;;;;;7.43;1.30;;;;;;;6.59;100.00;96810.00;5015242;28;20100;-65
2023/12/23 04:18:56;;;;;;;4.60;1.00;;;;;;;6.53;100.00;96821.75;5001946;28;20042;-64
2023/12/23 04:21:22;;;;;;;3.85;0.98;;;;;;;6.64;100.00;96820.88;5008420;28;20457;-65
2023/12/23 04:23:49;;;;;;;3.53;0.90;;;;;;;6.60;100.00;96828.59;5001683;28;20049;-65
2023/12/23 04:26:15;;;;;;;3.45;0.93;;;;;;;6.57;100.00;96830.97;5003223;28;20113;-64
2023/12/23 04:28:42;;;;;;;2.10;0.80;;;;;;;6.48;100.00;96828.66;5005046;28;20034;-64
2023/12/23 04:31:09;;;;;;;3.45;1.10;;;;;;;6.51;100.00;96821.97;4975444;28;20363;-64
2023/12/23 04:33:37;;;;;;;4.05;1.10;;;;;;;6.64;100.00;96810.13;5002780;28;20052;-64
2023/12/23 04:36:04;;;;;;;4.68;1.02;;;;;;;6.67;100.00;96831.16;5003378;28;20099;-64
2023/12/23 04:38:31;;;;;;;3.70;0.88;;;;;;;6.63;100.00;96825.44;5016366;28;20041;-65
2023/12/23 04:40:59;;;;;;;3.47;0.77;;;;;;;6.63;100.00;96812.00;5002389;28;20085;-64
2023/12/23 04:43:28;;;;;;;1.50;0.63;;;;;;;6.65;100.00;96811.75;5001443;28;20038;-64
2023/12/23 04:45:55;;;;;;;3.42;0.90;;;;;;;6.61;100.00;96810.59;5002168;28;20529;-65
2023/12/23 04:48:22;;;;;;;1.50;0.70;;;;;;;6.58;100.00;96809.22;5003758;28;20054;-65
2023/12/23 04:50:48;;;;;;;3.72;0.70;;;;;;;6.61;100.00;96837.50;5003318;28;20104;-64
2023/12/23 04:53:15;;;;;;;2.40;0.60;;;;;;;6.66;100.00;96839.50;5003463;28;20041;-65
2023/12/23 04:55:43;;;;;;;1.80;0.50;;;;;;;6.70;100.00;96811.00;5002808;28;20095;-65
2023/12/23 04:58:09;;;;;;;4.05;1.15;;;;;;;6.73;100.00;96822.13;4997947;28;20041;-65
2023/12/23 05:00:37;;;;;;;3.42;1.45;;;;;;;6.63;100.00;96822.75;5004043;28;20034;-64
2023/12/23 05:03:04;;;;;;;2.13;0.70;;;;;;;6.64;100.00;96847.78;4996707;28;20045;-65
2023/12/23 05:05:30;;;;;;;3.08;0.77;;;;;;;6.65;100.00;96819.81;4999825;28;20034;-64
2023/12/23 05:07:57;;;;;;;1.70;0.80;;;;;;;6.62;100.00;96806.84;5000769;28;20042;-65
2023/12/23 05:10:24;;;;;;;2.33;0.60;;;;;;;6.60;100.00;96812.47;5003458;28;20038;-64
2023/12/23 05:12:50;;;;;;;2.63;0.88;;;;;;;6.72;100.00;96811.59;5002100;28;20038;-65
2023/12/23 05:15:17;;;;;;;1.55;0.50;;;;;;;6.68;100.00;96789.75;5000012;28;20041;-64
2023/12/23 05:17:44;;;;;;;1.30;0.40;;;;;;;6.63;100.00;96770.81;5015857;28;20030;-65
2023/12/23 05:20:11;;;;;;;1.52;0.60;;;;;;;6.68;100.00;96770.94;5002915;28;20394;-65
2023/12/23 05:22:38;;;;;;;1.80;0.50;;;;;;;6.75;100.00;96803.06;4993324;28;20112;-65
2023/12/23 05:25:05;;;;;;;0.75;0.40;;;;;;;6.74;100.00;96804.09;5001790;28;20072;-64
2023/12/23 05:27:31;;;;;;;0.35;0.30;;;;;;;6.81;100.00;96810.16;5002738;28;20053;-65
2023/12/23 05:29:58;;;;;;;2.83;0.70;;;;;;;6.83;100.00;96791.09;5001134;28;20052;-64
2023/12/23 05:32:24;;;;;;;1.35;0.35;;;;;;;6.78;100.00;96815.22;5003372;28;20125;-64
2023/12/23 05:34:53;;;;;;;0.85;0.30;;;;;;;6.76;100.00;96821.66;5003014;28;20056;-65
2023/12/23 05:37:19;;;;;;;2.10;0.40;;;;;;;6.73;100.00;96810.53;5000910;28;20049;-65
2023/12/23 05:39:48;;;;;;;1.48;0.35;;;;;;;6.77;100.00;96841.28;4996884;28;20045;-65
2023/12/23 05:42:15;;;;;;;0.70;0.32;;;;;;;6.73;100.00;96821.31;5002273;28;20091;-64
2023/12/23 05:44:41;;;;;;;1.27;0.73;;;;;;;6.68;100.00;96813.16;5003056;28;20042;-65
2023/12/23 05:47:08;;;;;;;0.90;0.47;;;;;;;6.68;100.00;96840.88;5002840;28;20117;-65
2023/12/23 05:49:34;;;;;;;2.30;0.50;;;;;;;6.70;100.00;96814.53;5005934;28;20117;-65
2023/12/23 05:52:01;;;;;;;0.30;0.30;;;;;;;6.73;100.00;96802.47;5002061;28;20433;-65
2023/12/23 05:54:27;;;;;;;1.65;0.43;;;;;;;6.65;100.00;96792.94;4997953;28;20509;-65
2023/12/23 05:56:54;;;;;;;1.88;0.45;;;;;;;6.64;100.00;96783.22;5003480;28;20456;-65
2023/12/23 05:59:20;;;;;;;2.08;0.57;;;;;;;6.58;100.00;96793.06;5000343;28;21581;-65
2023/12/23 06:01:47;;;;;;;1.58;0.40;;;;;;;6.67;100.00;96782.72;4998964;28;20061;-65
2023/12/23 06:04:13;;;;;;;1.80;0.40;;;;;;;6.67;100.00;96760.41;4996481;28;20046;-65
2023/12/23 06:06:40;;;;;;;0.85;0.40;;;;;;;6.72;100.00;96796.28;5003356;28;20045;-65
2023/12/23 06:09:06;;;;;;;0.60;0.38;;;;;;;6.73;100.00;96786.31;5002540;28;20049;-64
2023/12/23 06:11:33;;;;;;;0.40;0.20;;;;;;;6.59;100.00;96792.00;5003502;28;20069;-64
2023/12/23 06:14:00;;;;;;;1.23;0.63;;;;;;;6.61;100.00;96757.63;4994474;28;20058;-64
2023/12/23 06:16:26;;;;;;;0.22;0.22;;;;;;;6.64;100.00;96764.41;4997693;28;20053;-66
2023/12/23 06:18:53;;;;;;;1.40;0.30;;;;;;;6.58;100.00;96763.47;4994808;28;20042;-64
2023/12/23 06:21:20;;;;;;;0.47;0.20;;;;;;;6.61;100.00;96751.41;5002436;28;20045;-64
2023/12/23 06:23:46;;;;;;;0.47;0.40;;;;;;;6.57;100.00;96787.94;5006526;28;20034;-64
2023/12/23 06:26:13;;;;;;;1.92;0.25;;;;;;;6.57;100.00;96801.38;4996111;28;20064;-64
2023/12/23 06:28:39;;;;;;;0.85;0.20;;;;;;;6.53;100.00;96784.09;4999963;28;20093;-65
2023/12/23 06:31:06;;;;;;;1.02;0.20;;;;;;;6.60;100.00;96790.16;4982002;28;20144;-66
2023/12/23 06:33:33;;;;;;;0.30;0.30;;;;;;;6.55;100.00;96790.03;4995765;28;20064;-64
2023/12/23 06:35:59;;;;;;;0.20;0.13;;;;;;;6.61;100.00;96795.28;5000757;28;20541;-67
2023/12/23 06:38:26;;;;;;;0.40;0.25;;;;;;;6.62;100.00;96796.09;5006259;28;20030;-68
2023/12/23 06:40:54;;;;;;;1.40;0.50;;;;;;;6.60;100.00;96809.78;5002648;28;20104;-68
2023/12/23 06:43:20;;;;;;;1.30;0.25;;;;;;;6.56;100.00;96789.78;5003154;28;20069;-67
2023/12/23 06:46:10;;;;;;;0.20;0.20;;;;;;;6.43;100.00;96798.16;5004174;28;20038;-67
2023/12/23 06:48:38;;;;;;;0.38;0.20;;;;;;;6.41;100.00;96787.63;4998280;28;20497;-66
2023/12/23 06:51:06;;;;;;;0.38;0.38;;;;;;;6.36;100.00;96807.19;4998647;28;20054;-67
2023/12/23 06:53:32;;;;;;;1.17;0.50;;;;;;;6.32;100.00;96800.66;5004779;28;20101;-67
2023/12/23 06:55:59;;;;;;;1.08;0.50;;;;;;;6.27;100.00;96772.84;4999294;28;20105;-67
2023/12/23 06:58:28;;;;;;;2.95;0.30;;;;;;;6.27;100.00;96778.22;5007810;28;20038;-66
2023/12/23 07:00:54;;;;;;;1.08;0.40;;;;;;;6.24;100.00;96780.31;5005488;28;20037;-66
2023/12/23 07:03:21;;;;;;;0.60;0.50;;;;;;;6.18;100.00;96791.19;4998229;28;20069;-69
2023/12/23 07:05:48;;;;;;;0.75;0.30;;;;;;;6.31;100.00;96785.59;5004466;28;20066;-67
2023/12/23 07:08:15;;;;;;;1.17;0.40;;;;;;;6.21;100.00;96788.03;5000677;28;20080;-69
2023/12/23 07:10:42;;;;;;;1.35;0.30;;;;;;;6.22;100.00;96787.81;5001793;28;20046;-66
2023/12/23 07:13:08;;;;;;;0.80;0.20;;;;;;;6.18;100.00;96788.50;5005500;28;20539;-67
2023/12/23 07:15:35;;;;;;;0.75;0.30;;;;;;;6.18;100.00;96792.03;5000540;28;20046;-69
2023/12/23 07:18:01;;;;;;;1.95;0.30;;;;;;;6.20;100.00;96797.97;4978857;28;20051;-68
2023/12/23 07:20:28;;;;;;;0.20;0.20;;;;;;;6.28;100.00;96806.72;5000947;28;20168;-66
2023/12/23 07:22:55;;;;;;;0.10;0.10;;;;;;;6.29;100.00;96808.34;4997092;28;20043;-67
2023/12/23 07:25:21;;;;;;;0.60;0.17;;;;;;;6.33;100.00;96818.41;5004670;28;20048;-68
2023/12/23 07:27:48;;;;;;;0.43;0.10;;;;;;;6.40;100.00;96809.38;5002767;28;20108;-68
2023/12/23 07:30:14;;;;;;;1.02;0.30;;;;;;;6.37;100.00;96827.63;4992924;28;20122;-66
2023/12/23 07:32:41;;;;;;;0.68;0.10;;;;;;;6.44;100.00;96803.28;5007387;28;20117;-67
2023/12/23 07:35:08;;;;;;;0.55;0.20;;;;;;;6.42;100.00;96804.59;5005859;28;20046;-66
2023/12/23 07:37:35;;;;;;;0.50;0.30;;;;;;;6.35;100.00;96808.22;4998091;28;20041;-67
2023/12/23 07:40:04;;;;;;;0.40;0.20;;;;;;;6.40;100.00;96812.06;5006636;28;20050;-67
2023/12/23 07:42:31;;;;;;;0.65;0.30;;;;;;;6.41;100.00;96817.22;5000876;28;20042;-67
2023/12/23 07:44:57;;;;;;;0.60;0.28;;;;;;;6.39;100.00;96813.97;5006928;28;20053;-67
2023/12/23 07:47:24;;;;;;;0.40;0.30;;;;;;;6.35;100.00;96802.84;5006736;28;20050;-67
2023/12/23 07:49:51;;;;;;;0.20;0.20;;;;;;;6.42;100.00;96809.97;4999103;28;20691;-67
2023/12/23 07:52:17;;;;;;;0.47;0.28;;;;;;;6.46;100.00;96824.56;5003435;28;20507;-68
2023/12/23 07:54:44;;;;;;;1.40;0.20;;;;;;;6.55;100.00;96825.00;5005466;28;20394;-67
2023/12/23 07:57:10;;;;;;;1.23;0.28;;;;;;;6.48;100.00;96820.59;4992869;28;20536;-66
2023/12/23 07:59:39;;;;;;;0.10;0.10;;;;;;;6.55;100.00;96812.38;5006034;28;20041;-66
2023/12/23 08:02:09;;;;;;;0.90;0.30;;;;;;;6.44;100.00;96814.03;5005368;28;20046;-67
2023/12/23 08:04:35;;;;;;;0.50;0.10;;;;;;;6.56;100.00;96830.13;5005660;28;20413;-67
2023/12/23 08:07:02;;;;;;;0.60;0.28;;;;;;;6.58;100.00;96830.72;5000488;28;20738;-67
2023/12/23 08:09:28;;;;;;;0.30;0.20;;;;;;;6.53;100.00;96836.00;4997566;28;20077;-67
2023/12/23 08:11:55;;;;;;;0.20;0.20;;;;;;;6.57;100.00;96839.88;5004537;28;20042;-67
2023/12/23 08:14:21;;;;;;;0.30;0.17;;;;;;;6.58;100.00;96830.72;5005129;28;20038;-67
2023/12/23 08:16:48;;;;;;;0.90;0.22;;;;;;;6.61;100.00;96849.09;5001787;28;20045;-67
2023/12/23 08:19:14;;;;;;;0.70;0.63;;;;;;;6.60;100.00;96847.44;4976180;28;20074;-68
2023/12/23 08:21:43;;;;;;;0.50;0.20;;;;;;;6.70;100.00;96851.38;5003293;28;20048;-66
2023/12/23 08:24:11;;;;;;;0.63;0.30;;;;;;;6.68;100.00;96832.81;4994964;28;20061;-66
2023/12/23 08:26:37;;;;;;;0.63;0.17;;;;;;;6.80;100.00;96848.06;5004522;28;20045;-66
2023/12/23 08:29:04;;;;;;;0.32;0.20;;;;;;;6.83;100.00;96843.03;5003347;28;20052;-66
2023/12/23 08:31:31;;;;;;;1.00;0.40;;;;;;;6.83;100.00;96831.44;5001959;28;20042;-68
2023/12/23 08:33:57;;;;;;;0.43;0.30;;;;;;;6.88;100.00;96832.38;5000799;28;20072;-66
2023/12/23 08:36:24;;;;;;;0.30;0.30;;;;;;;6.88;100.00;96834.22;5000234;28;20045;-55
2023/12/23 08:38:52;;;;;;;1.20;0.20;;;;;;;6.77;100.00;96833.22;4994450;28;20046;-56
2023/12/23 08:41:18;;;;;;;1.10;0.10;;;;;;;6.78;100.00;96845.63;5000774;28;20046;-48
2023/12/23 08:43:45;;;;;;;0.20;0.20;;;;;;;6.80;100.00;96846.22;5002586;28;20073;-67
2023/12/23 08:46:11;;;;;;;0.98;0.35;;;;;;;6.84;100.00;96849.22;5002488;28;20069;-65
2023/12/23 08:48:38;;;;;;;1.17;0.10;;;;;;;6.90;100.00;96840.19;5003253;28;20044;-65
2023/12/23 08:51:04;;;;;;;0.20;0.10;;;;;;;6.86;100.00;96858.69;4997549;28;20050;-66
2023/12/23 08:53:31;;;;;;;0.10;0.10;;;;;;;6.88;100.00;96837.75;5000432;28;20409;-67
2023/12/23 08:55:57;;;;;;;0.10;0.10;;;;;;;6.90;100.00;96838.31;5000277;28;20045;-66
2023/12/23 08:58:25;;;;;;;0.10;0.10;;;;;;;6.92;100.00;96858.81;4989752;28;20113;-67
2023/12/23 09:00:52;;;;;;;0.17;0.10;;;;;;;6.94;100.00;96824.38;4991747;28;20044;-65
2023/12/23 09:03:19;;;;;;;0.20;0.20;;;;;;;6.94;100.00;96835.13;5002736;28;20111;-66
2023/12/23 09:05:45;;;;;;;0.60;0.30;;;;;;;6.97;100.00;96840.84;5002849;28;20053;-66
2023/12/23 09:08:13;;;;;;;0.40;0.20;;;;;;;7.06;100.00;96854.75;5000632;28;20046;-65
2023/12/23 09:10:39;;;;;;;0.60;0.20;;;;;;;7.00;100.00;96823.38;4993662;28;20066;-66
2023/12/23 09:13:06;;;;;;;0.57;0.20;;;;;;;7.05;100.00;96831.59;4997562;28;20148;-65
2023/12/23 09:15:33;;;;;;;0.10;0.10;;;;;;;6.96;100.00;96843.81;5003401;28;20037;-65
2023/12/23 09:17:59;;;;;;;0.25;0.10;;;;;;;7.06;100.00;96825.13;4996491;28;20049;-68
2023/12/23 09:20:28;;;;;;;0.65;0.15;;;;;;;6.99;100.00;96825.28;4996989;28;20048;-66
2023/12/23 09:22:55;;;;;;;0.40;0.20;;;;;;;7.04;100.00;96867.63;4987838;28;20042;-67
2023/12/23 09:25:21;;;;;;;0.43;0.20;;;;;;;6.89;100.00;96865.47;4990240;28;20052;-68
2023/12/23 09:27:48;;;;;;;0.85;0.20;;;;;;;6.90;100.00;96875.97;4999670;28;20046;-66
2023/12/23 09:30:15;;;;;;;0.30;0.20;;;;;;;7.00;100.00;96850.31;5001926;28;20041;-66
2023/12/23 09:32:42;;;;;;;0.22;0.10;;;;;;;6.92;100.00;96866.88;5002512;28;20042;-68
2023/12/23 09:35:08;;;;;;;0.20;0.15;;;;;;;7.00;100.00;96864.59;4995893;28;20061;-67
2023/12/23 09:37:36;;;;;;;0.25;0.13;;;;;;;7.02;100.00;96864.34;4998373;28;20054;-66
2023/12/23 09:40:04;;;;;;;1.10;0.50;;;;;;;7.12;100.00;96869.91;4997826;28;20053;-65
2023/12/23 09:42:31;;;;;;;0.30;0.20;;;;;;;7.13;100.00;96839.25;5000491;28;20539;-66
2023/12/23 09:44:57;;;;;;;0.30;0.15;;;;;;;7.06;100.00;96843.16;4997879;28;20068;-68
2023/12/23 09:47:25;;;;;;;1.17;0.38;;;;;;;7.13;100.00;96836.56;4993097;28;20046;-65
2023/12/23 09:49:51;;;;;;;2.85;1.50;;;;;;;7.15;100.00;96876.72;5000074;28;20164;-66
2023/12/23 09:52:18;;;;;;;0.17;0.10;;;;;;;7.19;100.00;96833.97;4997209;28;20057;-68
2023/12/23 09:54:50;;;;;;;0.10;0.10;;;;;;;7.12;100.00;96826.84;5003959;28;20413;-67
2023/12/23 09:57:17;;;;;;;;;;;;;;;7.15;100.00;96844.41;5005445;28;20069;-66
2023/12/23 09:59:43;;;;;;;0.40;0.10;;;;;;;7.11;100.00;96854.81;5004376;28;19964;-68
2023/12/23 10:02:10;;;;;;;0.75;0.28;;;;;;;7.08;100.00;96823.00;5003821;28;20108;-66
2023/12/23 10:04:37;;;;;;;0.75;0.30;;;;;;;7.11;100.00;96856.72;5004764;28;20056;-64
2023/12/23 10:07:03;;;;;;;0.63;0.40;;;;;;;7.12;100.00;96816.06;5002908;28;20042;-64
2023/12/23 10:09:30;;;;;;;1.17;0.63;;;;;;;7.14;100.00;96830.13;5006473;28;20149;-64
2023/12/23 10:11:56;;;;;;;0.10;0.10;;;;;;;7.20;100.00;96833.72;5001441;28;20652;-65
2023/12/23 10:14:25;;;;;;;1.17;0.38;;;;;;;7.19;100.00;96844.72;4995280;28;20464;-64
2023/12/23 10:16:53;;;;;;;0.45;0.10;;;;;;;7.20;100.00;96847.19;4999295;28;20054;-65
2023/12/23 10:19:20;;;;;;;0.30;0.10;;;;;;;7.23;100.00;96832.41;5001498;28;20092;-66
2023/12/23 10:21:50;;;;;;;0.30;0.20;;;;;;;7.24;100.00;96823.28;5009419;28;20072;-64
2023/12/23 10:24:17;;;;;;;0.13;0.10;;;;;;;7.28;100.00;96854.88;5005056;28;20038;-62
2023/12/23 10:26:44;;;;;;;0.20;0.20;;;;;;;7.25;100.00;96801.47;4996699;28;20681;-67
2023/12/23 10:29:14;;;;;;;0.00;0.00;;;;;;;7.26;100.00;96827.34;5002475;28;20038;-64
2023/12/23 10:31:45;;;;;;;0.10;0.10;;;;;;;7.22;100.00;96812.75;5004615;28;20072;-65
2023/12/23 10:34:17;;;;;;;0.15;0.10;;;;;;;7.17;100.00;96815.34;4999782;28;20042;-66
2023/12/23 10:36:44;;;;;;;0.10;0.10;;;;;;;7.20;100.00;96804.09;5006978;28;20099;-64
2023/12/23 10:39:24;;;;;;;0.40;0.13;;;;;;;7.35;100.00;96791.94;5005890;28;20053;-68
2023/12/23 10:41:57;;;;;;;0.10;0.10;;;;;;;7.24;100.00;96812.50;4994212;28;20050;-66
2023/12/23 10:44:29;;;;;;;0.35;0.10;;;;;;;7.26;100.00;96837.31;5007640;28;20042;-65
2023/12/23 10:46:56;;;;;;;0.10;0.10;;;;;;;7.31;100.00;96839.25;5002903;28;20045;-66
2023/12/23 10:49:24;;;;;;;0.10;0.10;;;;;;;7.30;100.00;96843.84;5006677;28;20038;-67
2023/12/23 10:51:54;;;;;;;2.83;0.10;;;;;;;7.40;100.00;96830.53;5003378;28;20061;-69
2023/12/23 10:54:28;;;;;;;0.30;0.20;;;;;;;7.32;100.00;96833.63;4997485;28;20041;-69
2023/12/23 10:56:57;;;;;;;0.32;0.15;;;;;;;7.32;100.00;96840.88;5000676;28;21354;-70
2023/12/23 10:59:24;;;;;;;0.00;0.00;;;;;;;7.36;100.00;96823.19;4997656;28;20527;-64
2023/12/23 11:01:51;;;;;;;0.52;0.10;;;;;;;7.35;100.00;96841.25;4995126;28;20046;-68
2023/12/23 11:04:19;;;;;;;0.10;0.10;;;;;;;7.39;100.00;96842.38;5001743;28;20038;-69
2023/12/23 11:06:47;;;;;;;0.88;0.20;;;;;;;7.34;100.00;96828.81;5001065;28;20596;-67
2023/12/23 11:09:16;;;;;;;1.27;0.50;;;;;;;7.40;100.00;96846.69;4993365;28;20832;-66
2023/12/23 11:11:43;;;;;;;0.90;0.10;;;;;;;7.40;100.00;96845.88;5000353;28;20042;-65
2023/12/23 11:14:10;;;;;;;0.10;0.10;;;;;;;7.40;100.00;96829.72;4992745;28;20803;-65
2023/12/23 11:16:39;;;;;;;0.28;0.20;;;;;;;7.36;100.00;96817.78;5002493;28;20111;-65
2023/12/23 11:19:06;;;;;;;0.32;0.20;;;;;;;7.33;100.00;96815.63;5002487;28;20050;-66
2023/12/23 11:21:35;;;;;;;0.32;0.20;;;;;;;7.31;100.00;96802.38;4997448;28;20113;-67
2023/12/23 11:24:02;;;;;;;0.10;0.10;;;;;;;7.41;100.00;96817.91;5000929;28;20050;-68
2023/12/23 11:26:35;;;;;;;0.15;0.10;;;;;;;7.26;100.00;96818.47;5000117;28;20063;-63
2023/12/23 11:29:05;;;;;;;0.85;0.77;;;;;;;7.24;100.00;96815.19;4995854;28;20073;-67
2023/12/23 11:31:32;;;;;;;0.17;0.13;;;;;;;7.31;100.00;96809.63;5004237;28;20052;-65
2023/12/23 11:33:59;;;;;;;0.15;0.10;;;;;;;7.38;100.00;96821.88;4994120;28;20046;-65